Time;durP1;ratioP1;P1;durP2;ratioP2;P2;SDS_P1;SDS_P2;PMS_P1;PMS_P2;Temp;Humidity;BMP_temperature;BMP_pressure;BME280_temperature;BME280_humidity;BME280_pressure;Samples;Min_cycle;Max_cycle;Signal;HPM_P1;HPM_P2
2021/11/02 00:01:27;;;;;;;4.80;2.97;;;7.00;99.90;;;;;;5055643;28;20132;-82
2021/11/02 00:03:54;;;;;;;4.60;2.75;;;6.90;99.90;;;;;;5055754;28;20097;-82
2021/11/02 00:06:20;;;;;;;4.78;2.47;;;6.90;99.90;;;;;;5073636;28;20032;-82
2021/11/02 00:08:46;;;;;;;5.30;2.60;;;7.20;99.90;;;;;;5055694;28;20465;-82
2021/11/02 00:11:12;;;;;;;3.95;2.58;;;7.40;99.90;;;;;;5055606;28;20082;-83
2021/11/02 00:13:41;;;;;;;4.32;2.70;;;7.40;99.90;;;;;;5055551;28;20029;-82
2021/11/02 00:16:11;;;;;;;5.22;2.83;;;7.60;99.90;;;;;;5039447;28;20060;-82
2021/11/02 00:18:45;;;;;;;3.57;2.43;;;7.70;99.90;;;;;;5056605;28;20047;-82
2021/11/02 00:21:12;;;;;;;3.42;2.30;;;7.80;99.90;;;;;;5055541;28;20082;-82
2021/11/02 00:23:38;;;;;;;3.90;2.45;;;7.90;99.90;;;;;;5055451;28;20519;-82
2021/11/02 00:26:11;;;;;;;6.75;2.97;;;8.00;99.90;;;;;;5055448;28;20107;-82
2021/11/02 00:28:37;;;;;;;5.43;1.98;;;7.70;99.90;;;;;;5055364;28;20021;-82
2021/11/02 00:31:03;;;;;;;3.05;1.92;;;7.80;99.90;;;;;;5055481;28;20028;-83
2021/11/02 00:33:29;;;;;;;5.80;2.30;;;8.00;99.90;;;;;;5073527;28;20028;-82
2021/11/02 00:35:56;;;;;;;4.32;2.17;;;8.10;99.90;;;;;;5055264;28;20111;-82
2021/11/02 00:38:23;;;;;;;3.08;2.22;;;7.50;99.90;;;;;;5055289;28;20032;-82
2021/11/02 00:40:49;;;;;;;3.42;2.20;;;7.20;99.90;;;;;;5055171;28;20472;-83
2021/11/02 00:43:15;;;;;;;3.78;1.90;;;6.90;99.90;;;;;;5073193;28;20050;-82
2021/11/02 00:45:41;;;;;;;4.40;2.42;;;6.80;99.90;;;;;;5073117;28;20021;-82
2021/11/02 00:48:13;;;;;;;3.08;1.80;;;6.80;99.90;;;;;;5055157;28;20028;-82
2021/11/02 00:50:43;;;;;;;5.90;2.10;;;6.80;99.90;;;;;;5073170;28;20025;-82
2021/11/02 00:53:10;;;;;;;3.83;1.90;;;6.80;99.90;;;;;;5055161;28;20051;-83
2021/11/02 00:55:36;;;;;;;3.83;2.00;;;6.80;99.90;;;;;;5056005;28;20436;-82
2021/11/02 00:58:05;;;;;;;3.20;1.90;;;6.80;99.90;;;;;;5059291;28;20063;-82
2021/11/02 01:00:34;;;;;;;3.78;2.00;;;6.80;99.90;;;;;;5059020;28;20420;-82
2021/11/02 01:03:00;;;;;;;6.75;2.20;;;7.00;99.90;;;;;;5059221;28;20025;-82
2021/11/02 01:05:26;;;;;;;2.95;1.77;;;7.20;99.90;;;;;;5059376;28;20040;-82
2021/11/02 01:07:52;;;;;;;4.65;2.00;;;7.00;99.90;;;;;;5077067;28;20021;-82
2021/11/02 01:10:18;;;;;;;5.45;2.03;;;7.00;99.90;;;;;;5059059;28;20029;-82
2021/11/02 01:12:45;;;;;;;4.13;2.05;;;7.10;99.90;;;;;;5059524;28;20059;-82
2021/11/02 01:15:13;;;;;;;2.70;2.08;;;7.30;99.90;;;;;;5058848;28;20028;-82
2021/11/02 01:17:39;;;;;;;3.83;1.92;;;7.30;99.90;;;;;;5058934;28;20115;-82
2021/11/02 01:20:07;;;;;;;6.93;2.25;;;7.50;99.90;;;;;;5058867;28;20021;-82
2021/11/02 01:22:33;;;;;;;5.30;2.60;;;7.50;99.90;;;;;;5058852;28;20021;-82
2021/11/02 01:24:58;;;;;;;4.28;2.60;;;7.30;99.90;;;;;;5058819;28;20035;-82
2021/11/02 01:27:24;;;;;;;6.65;2.63;;;7.30;99.90;;;;;;5076681;28;20067;-82
2021/11/02 01:29:50;;;;;;;5.63;2.53;;;7.10;99.90;;;;;;5058708;28;20056;-82
2021/11/02 01:32:16;;;;;;;6.22;2.40;;;7.20;99.90;;;;;;5058661;28;20403;-82
2021/11/02 01:34:41;;;;;;;8.13;2.33;;;7.30;99.90;;;;;;5058550;28;20056;-82
2021/11/02 01:37:07;;;;;;;5.68;2.13;;;7.40;99.90;;;;;;5058477;28;20111;-82
2021/11/02 01:39:34;;;;;;;5.68;2.35;;;7.70;99.90;;;;;;5058490;28;20051;-82
2021/11/02 01:42:01;;;;;;;3.70;2.00;;;7.80;99.90;;;;;;5076376;28;20385;-82
2021/11/02 01:44:28;;;;;;;3.92;2.25;;;7.80;99.90;;;;;;5058454;28;20021;-82
2021/11/02 01:46:54;;;;;;;5.18;2.30;;;7.90;99.90;;;;;;5058343;28;20036;-82
2021/11/02 01:49:20;;;;;;;4.82;1.90;;;8.10;99.90;;;;;;5058362;28;20036;-82
2021/11/02 01:51:46;;;;;;;5.10;2.30;;;7.90;99.90;;;;;;5058248;28;20028;-82
2021/11/02 01:54:12;;;;;;;2.33;1.60;;;7.90;99.90;;;;;;5058120;28;20028;-82
2021/11/02 01:56:38;;;;;;;4.25;1.90;;;8.00;99.90;;;;;;5058147;28;20021;-82
2021/11/02 01:59:05;;;;;;;4.22;2.10;;;7.90;99.90;;;;;;5075979;28;20017;-82
2021/11/02 02:01:40;;;;;;;3.83;1.77;;;7.90;99.90;;;;;;5075908;28;20044;-83
2021/11/02 02:04:45;;;;;;;3.78;1.48;;;8.00;99.90;;;;;;5058040;28;20119;-82
2021/11/02 02:07:37;;;;;;;3.55;2.03;;;7.90;99.90;;;;;;5057518;28;20082;-82
2021/11/02 02:10:19;;;;;;;4.15;2.35;;;7.80;99.90;;;;;;5057981;28;20036;-82
2021/11/02 02:13:18;;;;;;;5.35;2.25;;;7.70;99.90;;;;;;5057917;28;20029;-82
2021/11/02 02:15:51;;;;;;;4.97;2.00;;;7.70;99.90;;;;;;5039932;28;20427;-82
2021/11/02 02:18:36;;;;;;;4.88;2.20;;;7.80;99.90;;;;;;5057865;28;20546;-82
2021/11/02 02:21:11;;;;;;;4.55;1.67;;;7.90;99.90;;;;;;5075998;28;20021;-82
2021/11/02 02:24:06;;;;;;;3.28;1.73;;;7.90;99.90;;;;;;5057631;28;20031;-82
2021/11/02 02:26:38;;;;;;;3.72;1.80;;;8.00;99.90;;;;;;5057674;28;20543;-82
2021/11/02 02:29:06;;;;;;;4.72;2.05;;;8.30;99.90;;;;;;5057673;28;20028;-82
2021/11/02 02:31:35;;;;;;;3.53;2.10;;;8.40;99.90;;;;;;5057497;28;20054;-82
2021/11/02 02:34:02;;;;;;;3.85;1.98;;;8.30;99.90;;;;;;5057396;28;20028;-82
2021/11/02 02:36:32;;;;;;;4.47;1.95;;;8.20;99.90;;;;;;5057436;28;20119;-82
2021/11/02 02:39:00;;;;;;;2.42;1.70;;;8.10;99.90;;;;;;5057339;28;20067;-82
2021/11/02 02:41:26;;;;;;;3.28;2.08;;;8.10;99.90;;;;;;5057335;28;20077;-82
2021/11/02 02:43:53;;;;;;;3.38;2.00;;;8.20;99.90;;;;;;5057400;28;20024;-82
2021/11/02 02:46:20;;;;;;;5.28;2.45;;;8.00;99.90;;;;;;5075238;28;20048;-82
2021/11/02 02:48:47;;;;;;;4.68;2.00;;;7.80;99.90;;;;;;5057274;28;20021;-82
2021/11/02 02:51:15;;;;;;;5.22;2.15;;;7.70;99.90;;;;;;5057440;28;20527;-82
2021/11/02 02:53:43;;;;;;;4.75;2.00;;;7.60;99.90;;;;;;5075051;28;20024;-82
2021/11/02 02:56:11;;;;;;;3.00;1.88;;;7.60;99.90;;;;;;5057023;28;20028;-82
2021/11/02 02:58:42;;;;;;;5.00;1.88;;;7.60;99.90;;;;;;5057066;28;20031;-82
2021/11/02 03:01:10;;;;;;;3.45;1.75;;;7.60;99.90;;;;;;5056749;28;20053;-82
2021/11/02 03:03:46;;;;;;;5.05;1.77;;;7.60;99.90;;;;;;5056923;28;20049;-82
2021/11/02 03:06:15;;;;;;;3.65;2.03;;;7.70;99.90;;;;;;5056866;28;20068;-82
2021/11/02 03:08:42;;;;;;;5.28;2.25;;;7.80;99.90;;;;;;5056737;28;20373;-82
2021/11/02 03:11:11;;;;;;;3.45;1.63;;;7.90;99.90;;;;;;5056736;28;20025;-82
2021/11/02 03:13:40;;;;;;;3.97;1.80;;;8.00;99.90;;;;;;5056809;28;20021;-83
2021/11/02 03:16:09;;;;;;;4.10;2.13;;;7.90;99.90;;;;;;5056488;28;20098;-82
2021/11/02 04:42:49;;;;;;;4.65;1.45;;;8.00;99.90;;;;;;5073562;28;20040;-82
2021/11/02 05:06:56;;;;;;;4.00;1.50;;;7.00;99.90;;;;;;5073717;28;20039;-82
2021/11/02 05:48:04;;;;;;;;;;;6.00;99.90;;;;;;5077630;28;20494;-82
2021/11/02 06:01:36;;;;;;;2.85;1.65;;;7.20;99.90;;;;;;5075772;28;20072;-82
2021/11/02 06:07:27;;;;;;;4.67;2.80;;;6.30;99.90;;;;;;5075960;28;20103;-82
2021/11/02 06:10:03;;;;;;;4.30;2.63;;;6.00;99.90;;;;;;5024695;28;20029;-83
2021/11/02 06:29:21;;;;;;;4.95;2.50;;;6.30;99.90;;;;;;5076203;28;20437;-82
2021/11/02 06:40:08;;;;;;;4.35;2.60;;;6.60;99.90;;;;;;5075582;28;20024;-83
2021/11/02 06:43:04;;;;;;;3.80;2.15;;;6.40;99.90;;;;;;5075583;28;20066;-82
2021/11/02 06:48:18;;;;;;;2.97;1.35;;;7.00;99.90;;;;;;5075105;28;20031;-83
2021/11/02 06:56:50;;;;;;;3.25;2.28;;;7.50;99.90;;;;;;5075497;28;20024;-83
2021/11/02 07:00:09;;;;;;;3.28;1.63;;;7.90;99.90;;;;;;5057405;28;20035;-83
2021/11/02 07:19:19;;;;;;;4.95;2.40;;;8.00;99.90;;;;;;5075167;28;20032;-82
2021/11/02 07:22:05;;;;;;;5.50;2.85;;;8.20;99.90;;;;;;5074495;28;20062;-82
2021/11/02 08:48:07;;;;;;;4.88;1.92;;;8.40;99.90;;;;;;5073159;28;20055;-81
2021/11/02 08:50:39;;;;;;;5.35;1.98;;;8.20;99.90;;;;;;5073585;28;20476;-82
2021/11/02 08:53:07;;;;;;;10.27;2.05;;;8.30;99.90;;;;;;5055363;28;20025;-82
2021/11/02 08:55:35;;;;;;;3.85;1.52;;;8.40;99.90;;;;;;5055292;28;20029;-83
2021/11/02 08:58:02;;;;;;;3.55;1.50;;;8.00;99.90;;;;;;5038998;28;20052;-82
2021/11/02 09:00:28;;;;;;;7.72;1.67;;;8.00;99.90;;;;;;5038472;28;20448;-81
2021/11/02 09:03:03;;;;;;;6.20;1.48;;;7.90;99.90;;;;;;5054997;28;20028;-81
2021/11/02 09:05:34;;;;;;;2.70;1.27;;;8.10;99.90;;;;;;5055124;28;20070;-82
2021/11/02 09:08:00;;;;;;;2.92;1.30;;;8.20;99.90;;;;;;5073022;28;20025;-81
2021/11/02 09:10:27;;;;;;;2.55;1.25;;;8.20;99.90;;;;;;5054889;28;20103;-81
2021/11/02 09:12:57;;;;;;;4.20;1.65;;;8.20;99.90;;;;;;5054994;28;20500;-82
2021/11/02 09:15:27;;;;;;;5.18;1.92;;;7.90;99.90;;;;;;5055253;28;20028;-80
2021/11/02 09:17:55;;;;;;;4.78;2.10;;;7.80;99.90;;;;;;5076210;28;20013;-81
2021/11/02 09:20:23;;;;;;;5.10;1.88;;;7.70;99.90;;;;;;5077086;28;20025;-81
2021/11/02 09:22:49;;;;;;;6.35;1.88;;;7.70;99.90;;;;;;5059457;28;20032;-81
2021/11/02 09:25:16;;;;;;;3.58;2.10;;;7.70;99.90;;;;;;5059099;28;20028;-81
2021/11/02 09:27:43;;;;;;;2.30;1.50;;;7.70;99.90;;;;;;5058698;28;20058;-82
2021/11/02 09:30:11;;;;;;;9.35;3.85;;;7.80;99.90;;;;;;5076732;28;20494;-82
2021/11/02 09:32:40;;;;;;;6.60;2.72;;;7.90;99.90;;;;;;5058887;28;20058;-82
2021/11/02 09:35:06;;;;;;;3.00;2.10;;;7.80;99.90;;;;;;5076582;28;20032;-81
2021/11/02 09:37:34;;;;;;;6.63;2.45;;;7.70;99.90;;;;;;5058588;28;20146;-81
2021/11/02 09:40:41;;;;;;;5.55;2.45;;;7.60;99.90;;;;;;5058586;28;20027;-82
2021/11/02 09:43:14;;;;;;;4.75;2.03;;;7.60;99.90;;;;;;5022115;28;20056;-80
2021/11/02 09:46:08;;;;;;;7.05;3.20;;;7.70;99.90;;;;;;5076668;28;20043;-81
2021/11/02 09:49:00;;;;;;;4.93;1.95;;;7.80;99.90;;;;;;5058317;28;20392;-80
2021/11/02 09:51:52;;;;;;;7.72;2.30;;;7.80;99.90;;;;;;5058349;28;20115;-81
2021/11/02 09:54:31;;;;;;;3.88;1.88;;;7.70;99.90;;;;;;5058564;28;20488;-81
2021/11/02 09:57:14;;;;;;;5.03;1.98;;;7.90;99.90;;;;;;5076837;28;20021;-81
2021/11/02 09:59:59;;;;;;;7.70;2.58;;;7.90;99.90;;;;;;5058078;28;20028;-83
2021/11/02 10:02:45;;;;;;;3.80;1.83;;;8.00;99.90;;;;;;5076662;28;20031;-80
2021/11/02 10:05:16;;;;;;;5.03;2.20;;;8.00;99.90;;;;;;5075862;28;20024;-80
2021/11/02 10:08:04;;;;;;;6.63;2.13;;;7.90;99.90;;;;;;5057977;28;20047;-81
2021/11/02 10:10:52;;;;;;;5.93;2.30;;;8.00;99.90;;;;;;5057974;28;20368;-81
2021/11/02 10:13:34;;;;;;;5.68;2.30;;;7.90;99.90;;;;;;5058467;28;20059;-80
2021/11/02 10:16:03;;;;;;;3.45;1.85;;;7.80;99.90;;;;;;5056822;28;20032;-81
2021/11/02 10:18:45;;;;;;;6.85;2.35;;;7.90;99.90;;;;;;5057727;28;20072;-81
2021/11/02 10:21:41;;;;;;;5.60;1.80;;;8.10;99.90;;;;;;5075640;28;20029;-81
2021/11/02 10:24:20;;;;;;;6.85;2.40;;;8.10;99.90;;;;;;5057591;28;20033;-81
2021/11/02 10:27:07;;;;;;;5.20;2.08;;;8.00;99.90;;;;;;5057569;28;20116;-81
2021/11/02 10:29:41;;;;;;;5.93;2.35;;;8.30;99.90;;;;;;5057519;28;20058;-80
2021/11/02 10:32:13;;;;;;;6.40;2.53;;;8.30;99.90;;;;;;5057477;28;20024;-80
2021/11/02 10:34:41;;;;;;;3.10;1.60;;;8.20;99.90;;;;;;5057437;28;20032;-81
2021/11/02 10:37:29;;;;;;;8.10;2.33;;;8.40;99.90;;;;;;5057344;28;20028;-81
2021/11/02 10:40:15;;;;;;;3.90;2.00;;;8.50;99.90;;;;;;5057395;28;20442;-81
2021/11/02 10:43:16;;;;;;;4.78;2.42;;;8.50;99.90;;;;;;5075854;28;20028;-82
2021/11/02 10:45:53;;;;;;;4.35;2.40;;;8.50;99.90;;;;;;5057103;28;20036;-82
2021/11/02 10:48:37;;;;;;;3.63;1.80;;;8.40;99.90;;;;;;5075431;28;20041;-81
2021/11/02 10:51:09;;;;;;;5.03;2.03;;;8.60;99.90;;;;;;5057051;28;20071;-81
2021/11/02 10:53:38;;;;;;;2.72;1.77;;;8.80;99.90;;;;;;5057072;28;20044;-81
2021/11/02 10:56:32;;;;;;;3.38;1.85;;;8.60;99.90;;;;;;5057046;28;20028;-81
2021/11/02 10:59:01;;;;;;;4.95;1.95;;;8.60;99.90;;;;;;5056982;28;20392;-81
2021/11/02 11:01:30;;;;;;;2.60;1.52;;;8.90;99.90;;;;;;5056735;28;20128;-81
2021/11/02 11:03:59;;;;;;;4.25;2.00;;;9.30;99.90;;;;;;5056799;28;20121;-80
2021/11/02 11:06:27;;;;;;;4.47;1.90;;;9.50;99.90;;;;;;5074700;28;20111;-82
2021/11/02 11:08:56;;;;;;;4.35;1.50;;;9.60;99.90;;;;;;5057043;28;20020;-83
2021/11/02 11:11:28;;;;;;;5.18;1.77;;;9.80;99.90;;;;;;5056713;28;20506;-81
2021/11/02 11:13:59;;;;;;;3.13;1.20;;;10.10;99.90;;;;;;5074695;28;20426;-82
2021/11/02 11:16:29;;;;;;;5.47;1.38;;;10.60;99.90;;;;;;5040745;28;20144;-81
2021/11/02 11:19:10;;;;;;;2.85;1.27;;;10.80;99.90;;;;;;5056725;28;20159;-83
2021/11/02 11:21:37;;;;;;;4.20;1.20;;;10.60;99.90;;;;;;5074869;28;20085;-81
2021/11/02 11:24:12;;;;;;;2.30;1.15;;;10.60;99.90;;;;;;5056554;28;20112;-81
2021/11/02 11:26:43;;;;;;;;;;;10.50;99.90;;;;;;5057041;28;20479;-82
2021/11/02 11:29:10;;;;;;;1.90;1.10;;;10.30;99.90;;;;;;5056550;28;19954;-82
2021/11/02 11:31:37;;;;;;;1.80;1.00;;;10.10;99.90;;;;;;5056349;28;20043;-80
2021/11/02 11:34:03;;;;;;;1.80;0.75;;;9.90;99.90;;;;;;5056113;28;20098;-82
2021/11/02 11:36:33;;;;;;;1.20;0.90;;;9.80;99.90;;;;;;5056281;28;20035;-80
2021/11/02 11:39:03;;;;;;;2.58;0.82;;;9.80;99.90;;;;;;5055572;28;20047;-82
2021/11/02 11:41:33;;;;;;;1.52;0.80;;;9.90;99.90;;;;;;5056223;28;20020;-82
2021/11/02 11:44:03;;;;;;;1.58;0.68;;;10.00;99.90;;;;;;5056060;28;20024;-81
2021/11/02 11:46:31;;;;;;;3.42;0.70;;;9.80;99.90;;;;;;5056037;28;20079;-81
2021/11/02 11:48:59;;;;;;;1.83;0.50;;;9.60;99.90;;;;;;5055998;28;20510;-81
2021/11/02 11:51:29;;;;;;;1.20;0.60;;;9.60;99.90;;;;;;5055976;28;20021;-82
2021/11/02 11:54:03;;;;;;;1.13;0.47;;;9.50;99.90;;;;;;5055936;28;20040;-82
2021/11/02 11:56:31;;;;;;;;;;;9.30;99.90;;;;;;5057304;28;20032;-81
2021/11/02 11:58:57;;;;;;;1.60;0.43;;;9.30;99.90;;;;;;5057101;28;19905;-80
2021/11/02 12:01:49;;;;;;;1.83;0.50;;;9.40;99.90;;;;;;5055959;28;20102;-81
2021/11/02 12:04:34;;;;;;;1.15;0.40;;;9.40;99.90;;;;;;5055747;28;20434;-82
2021/11/02 12:07:06;;;;;;;0.82;0.40;;;9.60;99.90;;;;;;5056093;28;20107;-81
2021/11/02 12:09:44;;;;;;;0.82;0.63;;;9.40;99.90;;;;;;5055691;28;20119;-81
2021/11/02 12:12:10;;;;;;;0.75;0.40;;;9.50;99.90;;;;;;5055622;28;20031;-83
2021/11/02 12:14:51;;;;;;;0.85;0.40;;;9.70;99.90;;;;;;5073602;28;20388;-81
2021/11/02 12:17:24;;;;;;;1.98;0.50;;;9.80;99.90;;;;;;5055675;28;20476;-82
2021/11/02 12:19:52;;;;;;;1.17;0.38;;;10.00;99.90;;;;;;5055566;28;20078;-81
2021/11/02 12:22:25;;;;;;;0.63;0.40;;;10.00;99.90;;;;;;5055464;28;20020;-81
2021/11/02 12:25:06;;;;;;;1.73;1.00;;;10.00;99.90;;;;;;5055278;28;20032;-81
2021/11/02 12:27:41;;;;;;;1.92;0.40;;;10.20;99.90;;;;;;5055373;28;20060;-81
2021/11/02 12:30:28;;;;;;;2.42;0.50;;;10.40;99.90;;;;;;5055379;28;20021;-84
2021/11/02 12:32:56;;;;;;;0.70;0.30;;;;;;;;;;5054959;28;20025;-81
2021/11/02 12:35:32;;;;;;;0.85;0.30;;;13.10;99.90;;;;;;5073512;28;20357;-82
2021/11/02 12:38:04;;;;;;;3.20;0.25;;;;;;;;;;5073000;28;20046;-82
2021/11/02 12:40:39;;;;;;;0.50;0.30;;;15.30;99.90;;;;;;5055070;28;20048;-82
2021/11/02 12:43:26;;;;;;;0.68;0.40;;;16.10;99.90;;;;;;5055001;28;20032;-80
2021/11/02 12:45:54;;;;;;;0.40;0.20;;;16.50;99.90;;;;;;5073129;28;20115;-81
2021/11/02 12:48:21;;;;;;;0.40;0.20;;;16.10;99.90;;;;;;5055102;28;20017;-79
2021/11/02 12:50:50;;;;;;;0.45;0.30;;;14.50;99.90;;;;;;5055046;28;20433;-79
2021/11/02 12:53:16;;;;;;;0.55;0.20;;;13.10;99.90;;;;;;5055116;28;20406;-80
2021/11/02 12:55:45;;;;;;;0.60;0.10;;;11.90;99.90;;;;;;5054790;28;20094;-79
2021/11/02 12:58:11;;;;;;;0.50;0.20;;;11.10;99.90;;;;;;5054940;28;20519;-80
2021/11/02 13:00:52;;;;;;;0.55;0.30;;;10.50;99.90;;;;;;5054751;28;20037;-79
2021/11/02 13:03:22;;;;;;;0.63;0.20;;;10.10;99.90;;;;;;5054781;28;20024;-79
2021/11/02 13:06:02;;;;;;;2.90;0.40;;;9.90;99.90;;;;;;5054822;28;20031;-80
2021/11/02 13:08:56;;;;;;;1.13;0.73;;;9.60;99.90;;;;;;5054864;28;20532;-80
2021/11/02 13:11:23;;;;;;;0.43;0.20;;;9.60;99.90;;;;;;5043767;28;20036;-79
2021/11/02 13:14:07;;;;;;;1.42;0.30;;;9.70;99.90;;;;;;5072927;28;20052;-79
2021/11/02 13:16:54;;;;;;;0.68;0.40;;;9.60;99.90;;;;;;5054754;28;20387;-79
2021/11/02 13:19:23;;;;;;;0.50;0.30;;;9.70;99.90;;;;;;5054847;28;20028;-78
2021/11/02 13:21:49;;;;;;;0.40;0.30;;;9.70;99.90;;;;;;5072781;28;20024;-79
2021/11/02 13:24:18;;;;;;;0.40;0.30;;;9.90;99.90;;;;;;5054587;28;20117;-79
2021/11/02 13:26:50;;;;;;;1.15;0.60;;;9.70;99.90;;;;;;5054738;28;20048;-81
2021/11/02 13:29:22;;;;;;;0.20;0.20;;;9.50;99.90;;;;;;5072703;28;20050;-80
2021/11/02 13:31:50;;;;;;;0.73;0.30;;;9.20;99.90;;;;;;5054698;28;20111;-80
2021/11/02 13:34:29;;;;;;;0.38;0.28;;;9.10;99.90;;;;;;5055525;28;20098;-79
2021/11/02 13:37:04;;;;;;;0.40;0.30;;;9.10;99.90;;;;;;5054710;28;20476;-79
2021/11/02 13:39:29;;;;;;;;;;;9.20;99.90;;;;;;5054945;28;20030;-79
2021/11/02 13:41:56;;;;;;;0.40;0.30;;;9.50;99.90;;;;;;5054542;28;20348;-79
2021/11/02 13:44:23;;;;;;;1.98;0.35;;;10.50;99.90;;;;;;5054509;28;20556;-79
2021/11/02 13:46:55;;;;;;;0.82;0.25;;;12.70;99.90;;;;;;5054453;28;20027;-79
2021/11/02 13:49:21;;;;;;;0.63;0.30;;;14.90;99.90;;;;;;5054539;28;20048;-80
2021/11/02 13:51:50;;;;;;;0.50;0.20;;;16.50;99.90;;;;;;5054540;28;20438;-80
2021/11/02 13:54:16;;;;;;;0.08;0.05;;;17.80;99.90;;;;;;5054815;28;20083;-80
2021/11/02 13:56:44;;;;;;;0.85;0.30;;;18.30;99.90;;;;;;5054343;28;20396;-80
2021/11/02 13:59:11;;;;;;;0.65;0.32;;;18.30;99.90;;;;;;5054517;28;20150;-80
2021/11/02 14:01:45;;;;;;;0.95;0.20;;;17.40;99.90;;;;;;5054346;28;20067;-80
2021/11/02 14:04:16;;;;;;;0.60;0.28;;;17.10;99.90;;;;;;5058019;28;20059;-79
2021/11/02 14:06:48;;;;;;;0.95;0.28;;;15.90;99.90;;;;;;5058234;28;20399;-80
2021/11/02 14:09:17;;;;;;;0.20;0.15;;;14.20;99.90;;;;;;5057967;28;20029;-80
2021/11/02 14:11:43;;;;;;;2.17;0.20;;;13.60;99.90;;;;;;5057929;28;20050;-79
2021/11/02 14:14:27;;;;;;;0.57;0.30;;;12.80;99.90;;;;;;5057992;28;20021;-80
2021/11/02 14:16:53;;;;;;;0.73;0.20;;;12.50;99.90;;;;;;5075882;28;20158;-79
2021/11/02 14:19:39;;;;;;;0.57;0.20;;;12.20;99.90;;;;;;5057810;28;20491;-80
2021/11/02 14:22:06;;;;;;;0.75;0.25;;;12.00;99.90;;;;;;5057817;28;20429;-79
2021/11/02 14:24:36;;;;;;;0.73;0.30;;;12.70;99.90;;;;;;5057568;28;20016;-81
2021/11/02 14:27:09;;;;;;;2.28;0.32;;;13.20;99.90;;;;;;5057694;28;20449;-79
2021/11/02 14:29:48;;;;;;;0.20;0.10;;;13.30;99.90;;;;;;5075599;28;20025;-80
2021/11/02 14:32:36;;;;;;;1.13;0.30;;;13.10;99.90;;;;;;5057556;28;20116;-79
2021/11/02 14:35:07;;;;;;;0.30;0.20;;;12.50;99.90;;;;;;5057523;28;20035;-80
2021/11/02 14:37:52;;;;;;;1.17;0.35;;;11.50;99.90;;;;;;5057781;28;20467;-80
2021/11/02 14:40:32;;;;;;;1.20;0.28;;;11.10;99.90;;;;;;5057472;28;20050;-79
2021/11/02 14:43:22;;;;;;;0.77;0.30;;;10.70;99.90;;;;;;5057886;28;20063;-79
2021/11/02 14:45:51;;;;;;;0.77;0.40;;;10.60;99.90;;;;;;5057318;28;20063;-81
2021/11/02 14:48:26;;;;;;;0.80;0.60;;;10.30;99.90;;;;;;5057269;28;20016;-81
2021/11/02 14:50:55;;;;;;;0.77;0.47;;;10.10;99.90;;;;;;5075157;28;20021;-79
2021/11/02 14:53:31;;;;;;;2.70;1.10;;;9.80;99.90;;;;;;5075171;28;20032;-79
2021/11/02 14:56:07;;;;;;;3.63;1.75;;;9.70;99.90;;;;;;5075075;28;20024;-80
2021/11/02 14:58:39;;;;;;;1.45;0.82;;;9.70;99.90;;;;;;5057098;28;20028;-79
2021/11/02 15:01:12;;;;;;;2.42;0.98;;;9.40;99.90;;;;;;5056735;28;20093;-80
2021/11/02 15:03:58;;;;;;;1.30;0.82;;;9.30;99.90;;;;;;5057777;28;20024;-80
2021/11/02 15:06:30;;;;;;;0.75;0.50;;;9.40;99.90;;;;;;5056798;28;20029;-79
2021/11/02 15:08:56;;;;;;;0.32;0.22;;;9.40;99.90;;;;;;5074852;28;20031;-79
2021/11/02 15:11:22;;;;;;;0.93;0.30;;;9.30;99.90;;;;;;5074745;28;20113;-79
2021/11/02 15:13:54;;;;;;;2.08;0.40;;;9.20;99.90;;;;;;5056215;28;20038;-79
2021/11/02 15:16:22;;;;;;;0.85;0.50;;;9.30;99.90;;;;;;5056591;28;20342;-79
2021/11/02 15:18:50;;;;;;;2.10;0.52;;;9.30;99.90;;;;;;5056690;28;20024;-79
2021/11/02 15:21:27;;;;;;;1.38;0.60;;;9.10;99.90;;;;;;5056554;28;20021;-79
2021/11/02 15:23:52;;;;;;;1.35;0.68;;;9.10;99.90;;;;;;5056571;28;20028;-79
2021/11/02 15:26:18;;;;;;;1.65;0.82;;;8.90;99.90;;;;;;5074402;28;20503;-79
2021/11/02 15:28:46;;;;;;;4.15;1.25;;;8.90;99.90;;;;;;5056457;28;20126;-80
2021/11/02 15:31:18;;;;;;;1.95;0.90;;;8.70;99.90;;;;;;5056340;28;20044;-80
2021/11/02 15:33:45;;;;;;;0.82;0.45;;;8.60;99.90;;;;;;5056393;28;20025;-80
2021/11/02 15:36:13;;;;;;;0.63;0.30;;;8.70;99.90;;;;;;5056348;28;20507;-82
2021/11/02 15:38:40;;;;;;;0.82;0.50;;;8.70;99.90;;;;;;5056307;28;20050;-79
2021/11/02 15:41:21;;;;;;;1.40;0.40;;;8.70;99.90;;;;;;5056232;28;20480;-79
2021/11/02 15:44:00;;;;;;;0.75;0.35;;;8.60;99.90;;;;;;5074099;28;20502;-80
2021/11/02 15:46:35;;;;;;;0.90;0.40;;;8.50;99.90;;;;;;5056115;28;20029;-79
2021/11/02 15:49:04;;;;;;;0.52;0.40;;;8.60;99.90;;;;;;5074104;28;20491;-79
2021/11/02 15:51:33;;;;;;;1.58;0.50;;;8.50;99.90;;;;;;5073986;28;20028;-79
2021/11/02 15:54:04;;;;;;;1.23;0.30;;;8.50;99.90;;;;;;5056015;28;20020;-79
2021/11/02 15:56:30;;;;;;;1.23;0.60;;;8.40;99.90;;;;;;5055989;28;20037;-80
2021/11/02 15:59:05;;;;;;;7.63;3.83;;;8.30;99.90;;;;;;5073838;28;20587;-80
2021/11/02 16:01:50;;;;;;;5.63;3.97;;;8.40;99.90;;;;;;5055674;28;20131;-79
2021/11/02 16:04:18;;;;;;;1.95;1.40;;;8.40;99.90;;;;;;5055798;28;20032;-79
2021/11/02 16:07:00;;;;;;;1.45;1.20;;;8.40;99.90;;;;;;5056000;28;20365;-79
2021/11/02 16:09:55;;;;;;;1.27;0.80;;;8.40;99.90;;;;;;5073648;28;20020;-80
2021/11/02 16:12:27;;;;;;;1.85;0.73;;;8.50;99.90;;;;;;5055704;28;20082;-80
2021/11/02 16:15:07;;;;;;;2.78;0.90;;;8.50;99.90;;;;;;5055523;28;20032;-80
2021/11/02 16:18:05;;;;;;;2.80;0.95;;;8.60;99.90;;;;;;5073394;28;20020;-79
2021/11/02 16:20:34;;;;;;;1.50;1.08;;;8.70;99.90;;;;;;5055573;28;20498;-79
2021/11/02 16:23:14;;;;;;;1.40;1.23;;;8.70;99.90;;;;;;5055491;28;20495;-79
2021/11/02 16:25:46;;;;;;;3.50;1.10;;;8.70;99.90;;;;;;5055044;28;20031;-80
2021/11/02 16:28:21;;;;;;;3.55;1.15;;;8.70;99.90;;;;;;5055436;28;20566;-80
2021/11/02 16:30:48;;;;;;;2.85;1.55;;;8.70;99.90;;;;;;5055420;28;20388;-80
2021/11/02 16:33:16;;;;;;;2.55;1.42;;;8.70;99.90;;;;;;5055299;28;20024;-80
2021/11/02 16:35:43;;;;;;;2.92;1.60;;;8.60;99.90;;;;;;5055283;28;20028;-80
2021/11/02 16:38:19;;;;;;;4.40;2.50;;;8.50;99.90;;;;;;5055265;28;20024;-80
2021/11/02 16:41:06;;;;;;;3.30;2.30;;;8.50;99.90;;;;;;5055330;28;20025;-80
2021/11/02 16:43:51;;;;;;;1.85;1.50;;;8.60;99.90;;;;;;5073272;28;20035;-80
2021/11/02 16:46:29;;;;;;;6.35;1.77;;;8.50;99.90;;;;;;5055148;28;20120;-80
2021/11/02 16:49:35;;;;;;;2.53;1.70;;;8.40;99.90;;;;;;5055111;28;20020;-80
2021/11/02 16:52:07;;;;;;;2.20;1.45;;;8.40;99.90;;;;;;5001652;28;20079;-80
2021/11/02 16:54:38;;;;;;;2.95;1.52;;;8.40;99.90;;;;;;5055118;28;20055;-80
2021/11/02 16:57:11;;;;;;;8.20;1.50;;;8.30;99.90;;;;;;5055139;28;20025;-81
2021/11/02 16:59:42;;;;;;;6.70;3.47;;;8.30;99.90;;;;;;5054947;28;20029;-80
2021/11/02 17:02:18;;;;;;;4.43;1.92;;;8.30;99.90;;;;;;5055096;28;20109;-80
2021/11/02 17:05:20;;;;;;;3.78;1.92;;;8.30;99.90;;;;;;5054938;28;20178;-81
2021/11/02 17:07:47;;;;;;;3.60;1.10;;;8.20;99.90;;;;;;5073237;28;20379;-81
2021/11/02 17:10:24;;;;;;;1.65;1.20;;;8.10;99.90;;;;;;5055015;28;20112;-81
2021/11/02 17:13:03;;;;;;;2.65;1.75;;;8.10;99.90;;;;;;5055064;28;20025;-80
2021/11/02 17:15:44;;;;;;;2.40;1.98;;;8.20;99.90;;;;;;5055154;28;20025;-80
2021/11/02 17:18:13;;;;;;;6.10;3.72;;;8.30;99.90;;;;;;5054912;28;20025;-80
2021/11/02 17:20:39;;;;;;;4.63;3.10;;;8.20;99.90;;;;;;5054839;28;20031;-80
2021/11/02 17:23:05;;;;;;;2.20;1.20;;;8.30;99.90;;;;;;5054875;28;20032;-80
2021/11/02 17:25:31;;;;;;;2.10;1.38;;;8.40;99.90;;;;;;5054718;28;20025;-80
2021/11/02 17:27:59;;;;;;;8.70;4.05;;;8.50;99.90;;;;;;5072752;28;20096;-80
2021/11/02 17:30:27;;;;;;;3.80;1.98;;;8.40;99.90;;;;;;5054862;28;20434;-81
2021/11/02 17:32:57;;;;;;;4.15;2.50;;;8.40;99.90;;;;;;5054808;28;20059;-81
2021/11/02 17:35:23;;;;;;;3.75;1.85;;;8.20;99.90;;;;;;5072717;28;20024;-80
2021/11/02 17:37:55;;;;;;;3.55;2.60;;;8.30;99.90;;;;;;5074165;28;20389;-81
2021/11/02 17:40:23;;;;;;;8.23;4.72;;;8.20;99.90;;;;;;5076591;28;20025;-80
2021/11/02 17:42:52;;;;;;;6.25;3.60;;;8.20;99.90;;;;;;5076597;28;20032;-80
2021/11/02 17:45:19;;;;;;;10.32;5.40;;;8.20;99.90;;;;;;5058488;28;20028;-81
2021/11/02 17:47:46;;;;;;;18.35;6.60;;;8.00;99.90;;;;;;5058587;28;20476;-81
2021/11/02 17:50:14;;;;;;;20.58;12.98;;;7.80;99.90;;;;;;5058569;28;20067;-81
2021/11/02 17:52:39;;;;;;;6.38;3.30;;;7.80;99.90;;;;;;5058411;28;20380;-80
2021/11/02 17:55:08;;;;;;;3.13;2.05;;;7.80;99.90;;;;;;5058395;28;20027;-80
2021/11/02 17:57:41;;;;;;;4.03;2.22;;;7.80;99.90;;;;;;5058780;28;20476;-81
2021/11/02 18:00:10;;;;;;;4.47;2.25;;;7.80;99.90;;;;;;5058134;28;20102;-81
2021/11/02 18:02:37;;;;;;;4.47;2.08;;;7.70;99.90;;;;;;5076362;28;20033;-80
2021/11/02 18:05:03;;;;;;;4.00;1.83;;;7.80;99.90;;;;;;5058091;28;20029;-81
2021/11/02 18:07:29;;;;;;;4.70;2.70;;;7.80;99.90;;;;;;5058162;28;20488;-80
2021/11/02 18:09:57;;;;;;;9.55;5.68;;;7.70;99.90;;;;;;5058151;28;20043;-81
2021/11/02 18:12:24;;;;;;;6.60;3.00;;;7.60;99.90;;;;;;5058019;28;20028;-81
2021/11/02 18:14:52;;;;;;;3.80;2.40;;;7.70;99.90;;;;;;5075995;28;20081;-81
2021/11/02 18:17:19;;;;;;;4.32;2.38;;;7.90;99.90;;;;;;5058366;28;20496;-81
2021/11/02 18:19:52;;;;;;;3.88;1.80;;;7.80;99.90;;;;;;5058073;28;20043;-81